Kearneysville, West Virginia
Current Conditions -  °F | °C
As of 11:53 AM on Friday 24 Oct 2014 (Local Time) from KMRB Reporting Station
Clear Clear  
Wind Chill: 61°   Ceiling: Unl
Heat Index: 61°   Visibility: 10mi
Dew Point: 39°   Wind: 16mph
Humidity: 44%   Direction: 310°NW
Pressure: 30"   Gusts: 20mph
Location:  39.39°N, 77.89°W
Report Text: KMRB 241553Z 31014G17KT 10SM CLR 16/04 A3000 RMK AO2 SLP159 T01610039
Loading
Personal Weather Stations






























Interactive Weather Map
Tropical Storm Tracking
New forecast layout! Learn more

10-Day Weather Forecast

Advertisements
Track Severe Weather on mobile